Map

Track Data

SID SEASON NUMBER BASIN SUBBASIN NAME ISO_TIME NATURE LAT LON WMO_WIND WMO_PRES WMO_AGENCY TRACK_TYPE DIST2LAND LANDFALL IFLAG USA_AGENCY USA_ATCF_ID USA_LAT USA_LON USA_RECORD USA_STATUS USA_WIND USA_PRES USA_SSHS USA_R34_NE USA_R34_SE USA_R34_SW USA_R34_NW USA_R50_NE USA_R50_SE USA_R50_SW USA_R50_NW USA_R64_NE USA_R64_SE USA_R64_SW USA_R64_NW USA_POCI USA_ROCI USA_RMW USA_EYE TOKYO_LAT TOKYO_LON TOKYO_GRADE TOKYO_WIND TOKYO_PRES TOKYO_R50_DIR TOKYO_R50_LONG TOKYO_R50_SHORT TOKYO_R30_DIR TOKYO_R30_LONG TOKYO_R30_SHORT TOKYO_LAND CMA_LAT CMA_LON CMA_CAT CMA_WIND CMA_PRES HKO_LAT HKO_LON HKO_CAT HKO_WIND HKO_PRES NEWDELHI_LAT NEWDELHI_LON NEWDELHI_GRADE NEWDELHI_WIND NEWDELHI_PRES NEWDELHI_CI NEWDELHI_DP NEWDELHI_POCI REUNION_LAT REUNION_LON REUNION_TYPE REUNION_WIND REUNION_PRES REUNION_TNUM REUNION_CI REUNION_RMW REUNION_R34_NE REUNION_R34_SE REUNION_R34_SW REUNION_R34_NW REUNION_R50_NE REUNION_R50_SE REUNION_R50_SW REUNION_R50_NW REUNION_R64_NE REUNION_R64_SE REUNION_R64_SW REUNION_R64_NW BOM_LAT BOM_LON BOM_TYPE BOM_WIND BOM_PRES BOM_TNUM BOM_CI BOM_RMW BOM_R34_NE BOM_R34_SE BOM_R34_SW BOM_R34_NW BOM_R50_NE BOM_R50_SE BOM_R50_SW BOM_R50_NW BOM_R64_NE BOM_R64_SE BOM_R64_SW BOM_R64_NW BOM_ROCI BOM_POCI BOM_EYE BOM_POS_METHOD BOM_PRES_METHOD NADI_LAT NADI_LON NADI_CAT NADI_WIND NADI_PRES WELLINGTON_LAT WELLINGTON_LON WELLINGTON_WIND WELLINGTON_PRES DS824_LAT DS824_LON DS824_STAGE DS824_WIND DS824_PRES TD9636_LAT TD9636_LON TD9636_STAGE TD9636_WIND TD9636_PRES TD9635_LAT TD9635_LON TD9635_WIND TD9635_PRES TD9635_ROCI NEUMANN_LAT NEUMANN_LON NEUMANN_CLASS NEUMANN_WIND NEUMANN_PRES MLC_LAT MLC_LON MLC_CLASS MLC_WIND MLC_PRES USA_GUST BOM_GUST BOM_GUST_PER REUNION_GUST REUNION_GUST_PER USA_SEAHGT USA_SEARAD_NE USA_SEARAD_SE USA_SEARAD_SW USA_SEARAD_NW STORM_SPEED STORM_DIR
1894042S15064 1894 7 SI MM NOT_NAMED 1894-02-11 06:00:00 NR -15.3000 64.2000 reunion main 873 849 _____O________ -1 -15.3000 64.2000 99 9.90000 5 237
1894042S15064 1894 7 SI MM NOT_NAMED 1894-02-11 09:00:00 NR -15.4496 63.9622 main 849 810 _____P________ -1 -15.4496 63.9622 99 5 237
1894042S15064 1894 7 SI MM NOT_NAMED 1894-02-11 12:00:00 NR -15.5980 63.7265 main 810 786 _____P________ -1 -15.5980 63.7265 99 5 237
1894042S15064 1894 7 SI MM NOT_NAMED 1894-02-11 15:00:00 NR -15.7439 63.4954 main 786 755 _____P________ -1 -15.7439 63.4954 99 5 237
1894042S15064 1894 7 SI MM NOT_NAMED 1894-02-11 18:00:00 NR -15.8863 63.2717 main 755 732 _____P________ -1 -15.8863 63.2717 99 5 236
1894042S15064 1894 7 SI MM NOT_NAMED 1894-02-11 21:00:00 NR -16.0242 63.0577 main 732 725 _____P________ -1 -16.0242 63.0577 99 2 213
1894042S15064 1894 7 SI MM NOT_NAMED 1894-02-12 00:00:00 TS -16.0651 63.1448 main 725 718 _____P___O____ -1 -16.1564 62.8560 99 -15.7000 64.3000 TC 2 163
1894042S15064 1894 7 SI MM NOT_NAMED 1894-02-12 03:00:00 TS -16.1847 63.1137 main 718 702 _____P___P____ -1 -16.2820 62.6693 99 -15.9901 64.0026 TC 3 203
1894042S15064 1894 7 SI MM NOT_NAMED 1894-02-12 06:00:00 TS -16.3571 63.0143 reunion main 696 674 _____O___O____ -1 -16.4000 62.5000 99 9.90000 -16.3000 63.7000 TC 5 211
1894042S15064 1894 7 SI MM NOT_NAMED 1894-02-12 09:00:00 TS -16.5761 62.8711 main 674 643 _____P___P____ -1 -16.5098 62.3497 99 -16.6425 63.3925 TC 6 217
1894042S15064 1894 7 SI MM NOT_NAMED 1894-02-12 12:00:00 TS -16.8064 62.6576 main 643 613 _____P___O____ -1 -16.6128 62.2151 99 -17.0000 63.1000 TC 6 221
1894042S15064 1894 7 SI MM NOT_NAMED 1894-02-12 15:00:00 TS -17.0305 62.4635 main 613 583 _____P___P____ -1 -16.7111 62.0921 99 -17.3500 62.8349 TC 6 218
1894042S15064 1894 7 SI MM NOT_NAMED 1894-02-12 18:00:00 TS -17.2533 62.2882 main 576 553 _____P___O____ -1 -16.8067 61.9764 99 -17.7000 62.6000 TC 5 216
1894042S15064 1894 7 SI MM NOT_NAMED 1894-02-12 21:00:00 TS -17.4569 62.1354 main 546 526 _____P___P____ -1 -16.9014 61.8636 99 -18.0124 62.4071 TC 5 214
1894042S15064 1894 7 SI MM NOT_NAMED 1894-02-13 00:00:00 TS -17.6986 61.9748 main 526 490 _____P___O____ -1 -16.9972 61.7495 99 -18.4000 62.2000 TC 7 212
1894042S15064 1894 7 SI MM NOT_NAMED 1894-02-13 03:00:00 TS -18.0294 61.7650 main 490 451 _____P___P____ -1 -17.0961 61.6298 99 -18.9626 61.9003 TC 8 210
1894042S15064 1894 7 SI MM NOT_NAMED 1894-02-13 06:00:00 TS -18.4000 61.5500 reunion main 451 417 _____O___O____ -1 -17.2000 61.5000 99 9.90000 -19.6000 61.6000 TC 8 208
1894042S15064 1894 7 SI MM NOT_NAMED 1894-02-13 09:00:00 TS -18.7483 61.3576 main 417 380 _____P___P____ -1 -17.3042 61.3453 99 -20.1925 61.3698 TC 8 206
1894042S15064 1894 7 SI MM NOT_NAMED 1894-02-13 12:00:00 TS -19.1056 61.1912 main 380 346 _____P___O____ -1 -17.4113 61.1824 99 -20.8000 61.2000 TC 8 203
1894042S15064 1894 7 SI MM NOT_NAMED 1894-02-13 15:00:00 TS -19.4788 61.0338 main 346 333 _____P___P____ -1 -17.5227 61.0125 99 -21.4350 61.0552 TC 5 211
1894042S15064 1894 7 SI MM NOT_NAMED 1894-02-13 18:00:00 TS -19.5514 60.9067 main 333 326 _____P___O____ -1 -17.6400 60.8368 99 -22.1000 61.0000 TC 2 280
1894042S15064 1894 7 SI MM NOT_NAMED 1894-02-13 21:00:00 TS -19.4407 60.7925 main 329 319 _____P___P____ -1 -17.7648 60.6565 99 -22.7925 61.0645 TC 6 333
1894042S15064 1894 7 SI MM NOT_NAMED 1894-02-14 00:00:00 TS -19.0190 60.6182 main 327 327 _____P___O____ -1 -17.8987 60.4728 99 -23.5000 61.2000 TC 15 341
1894042S15064 1894 7 SI MM NOT_NAMED 1894-02-14 03:00:00 NR -18.0432 60.2869 main 360 329 _____P________ -1 -18.0432 60.2869 99 TC 10 329
1894042S15064 1894 7 SI MM NOT_NAMED 1894-02-14 06:00:00 NR -18.2000 60.1000 reunion main 329 299 _____O________ -1 -18.2000 60.1000 99 9.90000 5 227
1894042S15064 1894 7 SI MM NOT_NAMED 1894-02-14 09:00:00 NR -18.3721 59.9115 main 299 275 _____P________ -1 -18.3721 59.9115 99 5 225
1894042S15064 1894 7 SI MM NOT_NAMED 1894-02-14 12:00:00 NR -18.5569 59.7202 main 268 245 _____P________ -1 -18.5569 59.7202 99 5 224
1894042S15064 1894 7 SI MM NOT_NAMED 1894-02-14 15:00:00 NR -18.7520 59.5276 main 238 214 _____P________ -1 -18.7520 59.5276 99 5 222
1894042S15064 1894 7 SI MM NOT_NAMED 1894-02-14 18:00:00 NR -18.9551 59.3353 main 207 186 _____P________ -1 -18.9551 59.3353 99 6 221
1894042S15064 1894 7 SI MM NOT_NAMED 1894-02-14 21:00:00 NR -19.1637 59.1447 main 177 156 _____P________ -1 -19.1637 59.1447 99 6 220
1894042S15064 1894 7 SI MM NOT_NAMED 1894-02-15 00:00:00 NR -19.3757 58.9576 main 156 127 _____P________ -1 -19.3757 58.9576 99 6 219
1894042S15064 1894 7 SI MM NOT_NAMED 1894-02-15 03:00:00 NR -19.5885 58.7755 main 127 99 _____P________ -1 -19.5885 58.7755 99 5 219
1894042S15064 1894 7 SI MM NOT_NAMED 1894-02-15 06:00:00 NR -19.8000 58.6000 reunion main 99 71 _____O________ -1 -19.8000 58.6000 99 9.90000 5 218
1894042S15064 1894 7 SI MM NOT_NAMED 1894-02-15 09:00:00 NR -20.0082 58.4323 main 71 53 _____P________ -1 -20.0082 58.4323 99 5 217
1894042S15064 1894 7 SI MM NOT_NAMED 1894-02-15 12:00:00 NR -20.2131 58.2718 main 53 33 _____P________ -1 -20.2131 58.2718 99 5 216
1894042S15064 1894 7 SI MM NOT_NAMED 1894-02-15 15:00:00 NR -20.4153 58.1174 main 33 30 _____P________ -1 -20.4153 58.1174 99 5 215
1894042S15064 1894 7 SI MM NOT_NAMED 1894-02-15 18:00:00 NR -20.6151 57.9681 main 33 23 _____P________ -1 -20.6151 57.9681 99 5 215
1894042S15064 1894 7 SI MM NOT_NAMED 1894-02-15 21:00:00 NR -20.8130 57.8228 main 35 35 _____P________ -1 -20.8130 57.8228 99 5 214
1894042S15064 1894 7 SI MM NOT_NAMED 1894-02-16 00:00:00 NR -21.0095 57.6804 main 55 55 _____P________ -1 -21.0095 57.6804 99 5 214
1894042S15064 1894 7 SI MM NOT_NAMED 1894-02-16 03:00:00 NR -21.2050 57.5398 main 78 78 _____P________ -1 -21.2050 57.5398 99 5 214
1894042S15064 1894 7 SI MM NOT_NAMED 1894-02-16 06:00:00 NR -21.4000 57.4000 reunion main 100 _____O________ -1 -21.4000 57.4000 99 9.90000 5 214

About IBTrACS Database

This database is a web-friendly format of International Best Track Archive for Climate Stewardship (IBTrACS), a global best track data archive curated by NOAA dating back to 1842.

Updated: 2021-10-25